Time;durP1;ratioP1;P1;durP2;ratioP2;P2;SDS_P1;SDS_P2;PMS_P1;PMS_P2;Temp;Humidity;BMP_temperature;BMP_pressure;BME280_temperature;BME280_humidity;BME280_pressure;Samples;Min_cycle;Max_cycle;Signal;HPM_P1;HPM_P2
2023/04/22 00:02:02;;;;;;;22.40;14.32;;;;;;;5.64;100.00;100569.75;5091270;28;20530;-79
2023/04/22 00:04:27;;;;;;;18.73;13.32;;;;;;;5.64;100.00;100573.22;5093565;28;20036;-79
2023/04/22 00:06:53;;;;;;;23.70;14.02;;;;;;;5.64;100.00;100570.56;5094559;28;20360;-79
2023/04/22 00:12:40;;;;;;;80.53;16.67;;;;;;;5.60;100.00;100562.16;5094534;28;20552;-79
2023/04/22 00:15:06;;;;;;;110.43;16.98;;;;;;;5.58;100.00;100547.44;5071858;28;20134;-79
2023/04/22 00:17:32;;;;;;;19.98;13.35;;;;;;;5.56;100.00;100550.28;5076269;28;20023;-79
2023/04/22 00:19:57;;;;;;;23.88;12.45;;;;;;;5.40;100.00;100533.78;5076285;28;20020;-79
2023/04/22 00:22:22;;;;;;;22.10;13.13;;;;;;;5.43;100.00;100549.31;5071907;28;20039;-79
2023/04/22 00:24:47;;;;;;;16.20;10.95;;;;;;;5.30;100.00;100542.06;5094332;28;20040;-78
2023/04/22 00:27:13;;;;;;;14.23;10.35;;;;;;;5.19;100.00;100548.63;5089246;28;20032;-79
2023/04/22 00:29:38;;;;;;;19.02;11.85;;;;;;;5.17;100.00;100548.00;5094073;28;20103;-79
2023/04/22 00:32:03;;;;;;;19.37;12.30;;;;;;;5.13;100.00;100549.38;5075963;28;20051;-78
2023/04/22 00:34:29;;;;;;;21.42;13.25;;;;;;;5.17;100.00;100560.44;5071586;28;20339;-79
2023/04/22 00:36:55;;;;;;;25.60;11.23;;;;;;;5.14;100.00;100551.03;5076020;28;20059;-78
2023/04/22 00:46:17;;;;;;;19.00;12.60;;;;;;;5.24;100.00;100548.94;5098042;28;20047;-78
2023/04/22 00:52:04;;;;;;;23.08;13.13;;;;;;;5.25;100.00;100558.53;5099238;28;20043;-78
2023/04/22 00:54:30;;;;;;;25.75;15.13;;;;;;;5.33;100.00;100554.09;5097490;28;20068;-78
2023/04/22 00:56:57;;;;;;;48.92;14.48;;;;;;;5.38;100.00;100560.47;5075412;28;20101;-78
2023/04/22 00:59:24;;;;;;;26.70;16.33;;;;;;;5.39;100.00;100556.00;5078304;28;20016;-78
2023/04/22 01:01:50;;;;;;;25.95;15.48;;;;;;;5.43;100.00;100555.44;5079973;28;20452;-78
2023/04/22 01:07:37;;;;;;;21.60;13.18;;;;;;;5.48;100.00;100558.34;5095745;28;20046;-78
2023/04/22 01:10:03;;;;;;;22.95;13.63;;;;;;;5.42;100.00;100537.06;5094048;28;20059;-76
2023/04/22 01:12:29;;;;;;;25.55;15.40;;;;;;;5.50;100.00;100548.41;5099068;28;20091;-77
2023/04/22 01:14:55;;;;;;;23.05;13.43;;;;;;;5.48;100.00;100539.78;5098005;28;20141;-78
2023/04/22 01:17:20;;;;;;;23.73;13.82;;;;;;;5.56;100.00;100554.78;5082458;28;20089;-78
2023/04/22 01:19:47;;;;;;;23.77;14.63;;;;;;;5.58;100.00;100548.28;5083878;28;20024;-78
2023/04/22 01:22:13;;;;;;;21.55;14.30;;;;;;;5.54;100.00;100530.28;5101835;28;20404;-78
2023/04/22 01:24:39;;;;;;;24.88;14.80;;;;;;;5.58;100.00;100534.19;5106828;28;20418;-79
2023/04/22 01:27:04;;;;;;;21.00;12.60;;;;;;;5.54;100.00;100535.59;5102899;28;20128;-78
2023/04/22 01:29:30;;;;;;;20.67;13.07;;;;;;;5.54;100.00;100536.41;5106317;28;20047;-78
2023/04/22 01:31:56;;;;;;;19.98;13.05;;;;;;;5.56;100.00;100538.88;5105696;28;20032;-78
2023/04/22 01:34:21;;;;;;;19.42;12.80;;;;;;;5.63;100.00;100538.91;5082947;28;20036;-78
2023/04/22 01:36:47;;;;;;;19.55;12.70;;;;;;;5.68;100.00;100540.00;5101690;28;20134;-78
2023/04/22 01:39:13;;;;;;;21.67;13.45;;;;;;;5.64;100.00;100533.44;5078930;28;20095;-78
2023/04/22 01:41:38;;;;;;;20.67;13.35;;;;;;;5.74;100.00;100546.38;5080431;28;20057;-78
2023/04/22 01:44:03;;;;;;;22.90;13.70;;;;;;;5.76;100.00;100539.84;5099824;28;20051;-77
2023/04/22 01:46:29;;;;;;;22.40;13.65;;;;;;;5.79;100.00;100530.72;5095457;28;20044;-78
2023/04/22 01:48:54;;;;;;;22.17;14.32;;;;;;;5.85;100.00;100535.25;5096995;28;20064;-78
2023/04/22 01:51:19;;;;;;;21.63;14.50;;;;;;;5.87;100.00;100534.06;5094983;28;20447;-78
2023/04/22 01:53:47;;;;;;;21.50;13.48;;;;;;;5.86;100.00;100529.75;5072802;28;20047;-78
2023/04/22 01:56:12;;;;;;;22.88;14.35;;;;;;;5.83;100.00;100537.28;5096961;28;20028;-78
2023/04/22 01:58:38;;;;;;;23.15;14.05;;;;;;;5.80;100.00;100535.84;5098092;28;20048;-78
2023/04/22 02:04:25;;;;;;;20.92;12.98;;;;;;;5.72;100.00;100530.63;5097115;28;20039;-78
2023/04/22 02:06:51;;;;;;;17.38;12.30;;;;;;;5.73;100.00;100534.94;5093880;28;20036;-78
2023/04/22 02:09:16;;;;;;;22.05;14.23;;;;;;;5.70;100.00;100531.84;5075569;28;20471;-77
2023/04/22 02:11:41;;;;;;;23.25;13.68;;;;;;;5.68;100.00;100537.34;5088838;28;20059;-78
2023/04/22 02:14:06;;;;;;;20.00;12.52;;;;;;;5.61;100.00;100523.19;5095740;28;20024;-78
2023/04/22 02:16:32;;;;;;;22.20;14.20;;;;;;;5.69;100.00;100533.69;5091760;28;20830;-77
2023/04/22 02:18:57;;;;;;;20.60;14.07;;;;;;;5.61;100.00;100520.53;5096794;28;20058;-78
2023/04/22 02:24:44;;;;;;;18.42;11.43;;;;;;;5.56;100.00;100530.91;5092881;28;20093;-78
2023/04/22 02:27:09;;;;;;;19.63;12.40;;;;;;;5.47;100.00;100516.09;5094991;28;20468;-78
2023/04/22 02:29:35;;;;;;;16.98;11.65;;;;;;;5.47;100.00;100513.47;5091904;28;20048;-78
2023/04/22 02:32:00;;;;;;;17.42;12.07;;;;;;;5.44;100.00;100509.34;5097758;28;20039;-78
2023/04/22 02:34:26;;;;;;;18.90;13.15;;;;;;;5.47;100.00;100518.75;5098309;28;20038;-78
2023/04/22 02:36:51;;;;;;;19.83;13.82;;;;;;;5.38;100.00;100502.16;5091026;28;20048;-78
2023/04/22 02:39:16;;;;;;;20.85;13.25;;;;;;;5.41;100.00;100498.31;5096968;28;20055;-77
2023/04/22 02:41:42;;;;;;;19.05;13.40;;;;;;;5.38;100.00;100496.84;5072543;28;20071;-78
2023/04/22 02:44:07;;;;;;;21.25;13.93;;;;;;;5.45;100.00;100502.22;5076714;28;20024;-78
2023/04/22 02:46:32;;;;;;;22.65;14.00;;;;;;;5.47;100.00;100508.16;5092155;28;20345;-77
2023/04/22 02:48:57;;;;;;;21.50;13.85;;;;;;;5.41;100.00;100498.31;5088256;28;20048;-77
2023/04/22 02:51:23;;;;;;;23.43;14.50;;;;;;;5.49;100.00;100501.69;5092956;28;20057;-77
2023/04/22 02:53:48;;;;;;;22.35;13.60;;;;;;;5.57;100.00;100512.16;5070776;28;20286;-78
2023/04/22 02:59:35;;;;;;;23.27;13.48;;;;;;;5.57;100.00;100498.91;5090226;28;20044;-78
2023/04/22 03:02:01;;;;;;;25.15;13.13;;;;;;;5.59;100.00;100496.88;5070814;28;20048;-77
2023/04/22 03:04:26;;;;;;;22.60;14.23;;;;;;;5.57;100.00;100495.41;5075406;28;20119;-78
2023/04/22 03:06:51;;;;;;;20.77;13.27;;;;;;;5.64;100.00;100501.59;5089125;28;20059;-78
2023/04/22 03:09:17;;;;;;;20.33;13.80;;;;;;;5.57;100.00;100498.91;5076161;28;20081;-78
2023/04/22 03:11:42;;;;;;;21.98;14.43;;;;;;;5.51;100.00;100493.53;5095201;28;20028;-78
2023/04/22 03:14:08;;;;;;;17.88;12.15;;;;;;;5.48;100.00;100484.09;5073547;28;20039;-78
2023/04/22 03:16:33;;;;;;;19.38;12.77;;;;;;;5.50;100.00;100492.72;5093953;28;20078;-77
2023/04/22 03:18:58;;;;;;;18.10;11.60;;;;;;;5.46;100.00;100480.00;5070788;28;20503;-77
2023/04/22 03:21:24;;;;;;;21.95;13.60;;;;;;;5.45;100.00;100481.81;5074216;28;20150;-77
2023/04/22 03:23:49;;;;;;;22.65;14.23;;;;;;;5.54;100.00;100486.00;5074124;28;20028;-77
2023/04/22 03:26:14;;;;;;;21.53;13.43;;;;;;;5.53;100.00;100491.50;5092732;28;20047;-78
2023/04/22 03:28:40;;;;;;;19.40;12.90;;;;;;;5.58;100.00;100489.09;5097959;28;20296;-77
2023/04/22 03:31:05;;;;;;;20.92;13.07;;;;;;;5.57;100.00;100482.97;5073020;28;20291;-77
2023/04/22 03:36:51;;;;;;;19.08;13.48;;;;;;;5.48;100.00;100465.53;5096301;28;20491;-78
2023/04/22 03:39:17;;;;;;;21.90;14.20;;;;;;;5.53;100.00;100475.59;5095676;28;20020;-77
2023/04/22 03:41:42;;;;;;;24.83;13.57;;;;;;;5.48;100.00;100462.88;5095113;28;20020;-77
2023/04/22 03:44:07;;;;;;;20.15;13.25;;;;;;;5.52;100.00;100472.13;5090879;28;20289;-77
2023/04/22 03:49:54;;;;;;;20.38;12.65;;;;;;;5.50;100.00;100455.59;5095563;28;20073;-77
2023/04/22 03:52:19;;;;;;;19.20;13.48;;;;;;;5.59;100.00;100465.03;5095494;28;20016;-77
2023/04/22 03:54:45;;;;;;;21.95;13.27;;;;;;;5.58;100.00;100459.94;5094748;28;20043;-77
2023/04/22 03:57:10;;;;;;;21.97;13.60;;;;;;;5.56;100.00;100457.47;5076108;28;20466;-77
2023/04/22 03:59:35;;;;;;;22.60;14.57;;;;;;;5.51;100.00;100456.41;5096195;28;20353;-77
2023/04/22 04:02:00;;;;;;;21.90;14.37;;;;;;;5.49;100.00;100453.94;5092787;28;20487;-77
2023/04/22 04:04:28;;;;;;;20.48;13.88;;;;;;;5.53;100.00;100447.25;5077474;28;20308;-77
2023/04/22 04:06:53;;;;;;;22.15;14.35;;;;;;;5.50;100.00;100450.28;5076294;28;20061;-77
2023/04/22 04:12:40;;;;;;;20.20;13.30;;;;;;;5.50;100.00;100437.03;5095656;28;20109;-77
2023/04/22 04:15:06;;;;;;;23.80;13.90;;;;;;;5.52;100.00;100440.31;5073124;28;20060;-77
2023/04/22 04:17:32;;;;;;;30.02;14.00;;;;;;;5.54;100.00;100453.38;5094628;28;20034;-77
2023/04/22 04:19:57;;;;;;;24.20;14.90;;;;;;;5.50;100.00;100450.28;5072254;28;20047;-77
2023/04/22 04:22:22;;;;;;;22.85;14.43;;;;;;;5.43;100.00;100438.78;5077224;28;20027;-77
2023/04/22 04:28:10;;;;;;;25.15;14.38;;;;;;;5.40;100.00;100436.50;5096126;28;20089;-77
2023/04/22 04:30:36;;;;;;;23.85;14.90;;;;;;;5.42;100.00;100431.00;5095632;28;20107;-77
2023/04/22 04:33:05;;;;;;;25.05;15.38;;;;;;;5.47;100.00;100424.13;5072657;28;20503;-77
2023/04/22 04:35:36;;;;;;;23.00;14.10;;;;;;;5.45;100.00;100426.16;5094424;28;20146;-77
2023/04/22 04:38:02;;;;;;;23.45;14.45;;;;;;;5.44;100.00;100429.81;5090438;28;20060;-77
2023/04/22 04:40:28;;;;;;;23.25;15.13;;;;;;;5.44;100.00;100429.00;5092526;28;20503;-77
2023/04/22 04:42:57;;;;;;;23.95;15.55;;;;;;;5.45;100.00;100431.44;5075946;28;20122;-77
2023/04/22 04:45:23;;;;;;;27.17;15.30;;;;;;;5.52;100.00;100440.31;5071358;28;20124;-77
2023/04/22 04:51:10;;;;;;;25.67;15.40;;;;;;;5.63;100.00;100432.84;5094376;28;20085;-77
2023/04/22 04:53:36;;;;;;;27.63;17.90;;;;;;;5.61;100.00;100433.03;5076190;28;20020;-77
2023/04/22 04:56:01;;;;;;;22.50;15.45;;;;;;;5.69;100.00;100440.03;5095204;28;20024;-77
2023/04/22 04:58:26;;;;;;;26.08;16.95;;;;;;;5.60;100.00;100434.88;5072081;28;20127;-77
2023/04/22 05:00:51;;;;;;;24.73;16.38;;;;;;;5.65;100.00;100442.25;5094739;28;20457;-77
2023/04/22 05:03:17;;;;;;;27.95;17.00;;;;;;;5.67;100.00;100442.88;5089467;28;20404;-77
2023/04/22 05:05:42;;;;;;;25.38;15.65;;;;;;;5.73;100.00;100444.75;5095227;28;20032;-77
2023/04/22 05:08:07;;;;;;;23.90;15.63;;;;;;;5.78;100.00;100444.16;5076238;28;20028;-77
2023/04/22 05:10:33;;;;;;;20.20;14.25;;;;;;;5.77;100.00;100445.19;5072084;28;20073;-77
2023/04/22 05:12:58;;;;;;;24.63;16.70;;;;;;;5.81;100.00;100451.75;5094070;28;20028;-77
2023/04/22 05:15:23;;;;;;;28.02;17.10;;;;;;;5.83;100.00;100441.78;5089808;28;20131;-77
2023/04/22 05:17:48;;;;;;;25.17;16.25;;;;;;;5.88;100.00;100432.22;5076173;28;20030;-77
2023/04/22 05:20:14;;;;;;;25.33;15.70;;;;;;;5.88;100.00;100420.78;5075454;28;20450;-77
2023/04/22 05:22:41;;;;;;;26.20;17.40;;;;;;;6.03;100.00;100429.47;5089061;28;20278;-77
2023/04/22 05:25:07;;;;;;;25.45;16.15;;;;;;;6.11;100.00;100437.31;5093939;28;20024;-76
2023/04/22 05:27:33;;;;;;;27.92;17.15;;;;;;;6.13;100.00;100435.28;5090663;28;20048;-77
2023/04/22 05:33:20;;;;;;;33.35;18.70;;;;;;;6.22;100.00;100441.25;5095386;28;20103;-77
2023/04/22 05:35:45;;;;;;;30.05;17.77;;;;;;;6.32;100.00;100443.53;5090337;28;20489;-77
2023/04/22 05:38:11;;;;;;;32.47;18.27;;;;;;;6.48;100.00;100452.00;5094568;28;20036;-76
2023/04/22 05:40:36;;;;;;;31.88;19.60;;;;;;;6.59;100.00;100428.53;5088734;28;20040;-77
2023/04/22 05:46:23;;;;;;;34.15;19.35;;;;;;;6.99;100.00;100422.38;5089530;28;20490;-77
2023/04/22 05:48:48;;;;;;;41.20;22.42;;;;;;;7.33;100.00;100434.69;5074807;28;20028;-77
2023/04/22 05:51:14;;;;;;;46.35;23.65;;;;;;;7.65;100.00;100443.72;5093366;28;20067;-77
2023/04/22 05:53:39;;;;;;;44.22;25.13;;;;;;;7.85;100.00;100429.59;5088723;28;20036;-77
2023/04/22 05:56:04;;;;;;;45.75;24.40;;;;;;;7.88;100.00;100437.16;5096268;28;20488;-77
2023/04/22 05:58:30;;;;;;;46.30;25.10;;;;;;;7.86;100.00;100436.56;5098128;28;20073;-78
2023/04/22 06:00:55;;;;;;;47.15;25.50;;;;;;;7.90;100.00;100419.13;5076486;28;20035;-77
2023/04/22 06:03:20;;;;;;;46.97;24.87;;;;;;;8.06;100.00;100416.03;5093121;28;20032;-77
2023/04/22 06:05:45;;;;;;;47.37;27.17;;;;;;;8.47;100.00;100418.41;5070899;28;20725;-77
2023/04/22 06:08:11;;;;;;;52.58;28.52;;;;;;;9.13;100.00;100426.09;5093087;28;20289;-77
2023/04/22 06:10:36;;;;;;;96.68;35.92;;;;;;;9.75;100.00;100418.22;5092954;28;20035;-77
2023/04/22 06:13:01;;;;;;;110.63;44.77;;;;;;;10.31;100.00;100433.34;5070883;28;20040;-78
2023/04/22 06:15:27;;;;;;;52.40;32.92;;;;;;;10.56;100.00;100428.72;5093676;28;20269;-77
2023/04/22 06:17:52;;;;;;;52.08;32.92;;;;;;;11.11;100.00;100426.78;5088322;28;20044;-77
2023/04/22 06:20:18;;;;;;;46.42;30.63;;;;;;;11.69;100.00;100430.63;5092489;28;20033;-77
2023/04/22 06:22:43;;;;;;;35.20;26.45;;;;;;;12.23;100.00;100429.50;5092625;28;20028;-77
2023/04/22 06:25:08;;;;;;;27.53;21.73;;;;;;;12.62;100.00;100427.09;5070593;28;20032;-77
2023/04/22 06:27:34;;;;;;;24.27;20.90;;;;;;;13.25;100.00;100432.34;5075511;28;20286;-77
2023/04/22 06:33:21;;;;;;;19.08;15.10;;;;;;;14.96;100.00;100425.38;5090866;28;20052;-77
2023/04/22 06:35:46;;;;;;;16.57;14.53;;;;;;;15.42;100.00;100421.28;5093861;28;20044;-78
2023/04/22 06:38:11;;;;;;;15.32;12.85;;;;;;;15.71;100.00;100435.28;5098119;28;20753;-77
2023/04/22 06:40:37;;;;;;;15.82;13.15;;;;;;;15.89;100.00;100434.88;5074569;28;20036;-77
2023/04/22 06:43:02;;;;;;;14.17;12.67;;;;;;;16.29;100.00;100438.91;5070198;28;20448;-77
2023/04/22 06:45:27;;;;;;;13.57;12.27;;;;;;;16.77;100.00;100435.13;5074593;28;20340;-77
2023/04/22 06:47:53;;;;;;;13.48;12.07;;;;;;;17.08;100.00;100429.81;5092442;28;20376;-77
2023/04/22 06:53:40;;;;;;;15.23;11.90;;;;;;;16.98;100.00;100420.59;5088208;28;20094;-76
2023/04/22 06:56:05;;;;;;;14.43;12.93;;;;;;;16.90;100.00;100415.72;5069713;28;20028;-77
2023/04/22 06:58:30;;;;;;;13.25;11.95;;;;;;;16.93;100.00;100415.16;5073910;28;20278;-77
2023/04/22 07:00:56;;;;;;;15.23;12.63;;;;;;;17.01;100.00;100417.34;5071859;28;20044;-76
2023/04/22 07:03:21;;;;;;;13.10;11.80;;;;;;;17.21;100.00;100418.47;5077448;28;20460;-76
2023/04/22 07:05:47;;;;;;;13.63;12.23;;;;;;;17.67;100.00;100424.75;5095466;28;20327;-77
2023/04/22 07:08:13;;;;;;;13.85;12.32;;;;;;;17.48;94.76;100421.72;5090678;28;20051;-77
2023/04/22 07:10:38;;;;;;;13.15;11.77;;;;;;;17.41;100.00;100420.38;5077056;28;20414;-76
2023/04/22 07:13:03;;;;;;;13.73;11.57;;;;;;;18.10;100.00;100425.22;5090521;28;20500;-76
2023/04/22 07:18:50;;;;;;;12.98;11.50;;;;;;;16.61;100.00;100414.50;5091079;28;20288;-76
2023/04/22 07:21:16;;;;;;;12.40;11.10;;;;;;;15.69;100.00;100405.91;5073243;28;20040;-76
2023/04/22 07:23:41;;;;;;;13.65;11.10;;;;;;;15.16;100.00;100402.19;5095145;28;20157;-76
2023/04/22 07:26:06;;;;;;;12.60;11.07;;;;;;;14.77;100.00;100401.53;5072628;28;20044;-76
2023/04/22 07:28:31;;;;;;;14.48;12.50;;;;;;;14.97;100.00;100411.69;5076631;28;20127;-76
2023/04/22 07:30:57;;;;;;;16.07;13.20;;;;;;;15.90;100.00;100414.13;5076857;28;20119;-76
2023/04/22 07:33:22;;;;;;;12.27;10.97;;;;;;;16.59;100.00;100419.34;5072504;28;20293;-76
2023/04/22 07:35:48;;;;;;;13.47;12.07;;;;;;;16.42;100.00;100414.13;5094986;28;20626;-77
2023/04/22 07:38:14;;;;;;;12.85;11.38;;;;;;;16.65;100.00;100408.31;5072231;28;20301;-76
2023/04/22 07:40:39;;;;;;;13.00;11.63;;;;;;;17.47;100.00;100422.00;5076769;28;20047;-77
2023/04/22 07:43:05;;;;;;;12.53;11.23;;;;;;;18.14;98.17;100410.06;5076926;28;20460;-77
2023/04/22 07:45:31;;;;;;;12.98;11.43;;;;;;;19.29;95.95;100415.22;5090110;28;20274;-77
2023/04/22 07:47:56;;;;;;;12.65;10.95;;;;;;;20.26;85.67;100420.63;5094621;28;20040;-76
2023/04/22 07:50:21;;;;;;;12.53;11.23;;;;;;;20.25;86.64;100407.31;5072464;28;20106;-77
2023/04/22 07:52:46;;;;;;;12.23;9.80;;;;;;;19.72;82.44;100424.41;5094152;28;20780;-77
2023/04/22 07:55:12;;;;;;;15.10;11.17;;;;;;;18.83;93.36;100407.38;5094707;28;20032;-78
2023/04/22 07:57:38;;;;;;;12.53;10.50;;;;;;;18.51;94.84;100396.16;5072333;28;20737;-77
2023/04/22 08:00:08;;;;;;;12.25;10.73;;;;;;;19.13;91.52;100395.56;5094621;28;20361;-77
2023/04/22 08:02:33;;;;;;;12.55;10.30;;;;;;;19.82;90.03;100388.22;5074538;28;20491;-77
2023/04/22 08:04:59;;;;;;;14.07;11.90;;;;;;;20.61;86.87;100402.31;5091734;28;20040;-76
2023/04/22 08:07:24;;;;;;;12.63;11.30;;;;;;;21.11;82.88;100389.91;5094244;28;20028;-77
2023/04/22 08:09:50;;;;;;;12.32;10.68;;;;;;;20.99;81.82;100392.25;5071893;28;20359;-76
2023/04/22 08:12:16;;;;;;;13.10;11.32;;;;;;;21.09;82.03;100386.66;5093773;28;20115;-77
2023/04/22 08:14:41;;;;;;;11.85;10.25;;;;;;;21.07;81.28;100385.34;5076304;28;20024;-76
2023/04/22 08:17:06;;;;;;;11.87;10.73;;;;;;;21.14;82.19;100383.06;5089736;28;20067;-77
2023/04/22 08:19:31;;;;;;;12.40;11.02;;;;;;;21.17;78.83;100387.91;5076051;28;20278;-76
2023/04/22 08:21:57;;;;;;;11.98;10.73;;;;;;;20.84;81.34;100373.47;5089641;28;20036;-76
2023/04/22 08:24:22;;;;;;;11.75;10.55;;;;;;;20.95;79.79;100372.19;5076128;28;20039;-77
2023/04/22 08:26:47;;;;;;;12.45;10.60;;;;;;;20.51;81.54;100388.81;5075851;28;20461;-76
2023/04/22 08:32:34;;;;;;;13.32;10.60;;;;;;;19.02;87.09;100379.63;5090332;28;20062;-77
2023/04/22 08:35:00;;;;;;;12.55;11.25;;;;;;;18.82;87.95;100370.56;5089604;28;20460;-78
2023/04/22 08:37:26;;;;;;;13.00;10.60;;;;;;;18.79;93.28;100370.28;5094012;28;20032;-77
2023/04/22 08:39:52;;;;;;;11.38;10.10;;;;;;;18.83;93.65;100377.59;5090604;28;20340;-76
2023/04/22 08:42:19;;;;;;;13.02;10.40;;;;;;;18.77;89.73;100365.13;5093092;28;20103;-76
2023/04/22 08:44:44;;;;;;;12.77;10.52;;;;;;;19.18;89.06;100367.59;5076000;28;20074;-77
2023/04/22 08:47:12;;;;;;;14.45;10.40;;;;;;;20.53;85.32;100351.31;5071273;28;20040;-76
2023/04/22 08:49:37;;;;;;;11.57;9.68;;;;;;;21.20;80.67;100347.34;5075623;28;20423;-76
2023/04/22 08:52:02;;;;;;;11.15;9.75;;;;;;;22.13;74.52;100339.19;5071512;28;20044;-76
2023/04/22 08:54:28;;;;;;;10.07;8.85;;;;;;;22.99;72.48;100336.50;5075632;28;20038;-77
2023/04/22 08:56:54;;;;;;;11.10;8.48;;;;;;;23.97;70.09;100337.25;5093771;28;20032;-77
2023/04/22 08:59:21;;;;;;;10.32;8.73;;;;;;;24.57;63.58;100344.03;5071075;28;20122;-77
2023/04/22 09:01:51;;;;;;;10.35;8.98;;;;;;;25.41;65.16;100340.78;5093592;28;20028;-77
2023/04/22 09:04:17;;;;;;;10.35;8.52;;;;;;;25.57;59.51;100338.34;5089208;28;20041;-76
2023/04/22 09:06:43;;;;;;;10.00;8.90;;;;;;;24.92;60.26;100334.72;5093508;28;20036;-77
2023/04/22 09:09:08;;;;;;;11.00;8.87;;;;;;;24.31;59.63;100333.88;5093496;28;20100;-76
2023/04/22 09:11:35;;;;;;;11.43;8.38;;;;;;;23.49;61.17;100337.19;5071210;28;20286;-76
2023/04/22 09:14:05;;;;;;;10.55;8.85;;;;;;;22.21;66.27;100333.81;5075543;28;20429;-77
2023/04/22 09:16:30;;;;;;;10.63;8.68;;;;;;;22.43;69.32;100327.66;5089079;28;20135;-77
2023/04/22 09:18:56;;;;;;;9.02;7.90;;;;;;;22.66;64.78;100323.06;5075259;28;20071;-76
2023/04/22 09:21:26;;;;;;;9.00;8.07;;;;;;;22.93;68.94;100324.91;5075316;28;20028;-76
2023/04/22 09:23:53;;;;;;;10.50;8.65;;;;;;;23.60;63.95;100335.81;5088920;28;20285;-77
2023/04/22 09:26:23;;;;;;;9.77;8.52;;;;;;;23.40;62.22;100323.44;5093200;28;20028;-76
2023/04/22 09:28:57;;;;;;;8.45;7.40;;;;;;;22.64;66.67;100330.72;5070631;28;20044;-76
2023/04/22 09:31:23;;;;;;;8.05;6.75;;;;;;;22.13;64.54;100328.28;5093319;28;20031;-76
2023/04/22 09:33:54;;;;;;;8.93;7.55;;;;;;;21.85;66.93;100324.72;5075138;28;20034;-77
2023/04/22 09:39:42;;;;;;;9.15;7.18;;;;;;;21.74;66.43;100302.34;5093609;28;20150;-76
2023/04/22 09:42:07;;;;;;;10.07;8.20;;;;;;;22.89;63.93;100312.22;5070764;28;20130;-76
2023/04/22 09:44:34;;;;;;;9.00;7.35;;;;;;;24.17;60.31;100318.69;5075012;28;20032;-76
2023/04/22 09:46:59;;;;;;;8.25;7.40;;;;;;;24.25;58.59;100332.34;5071228;28;20252;-77
2023/04/22 09:49:26;;;;;;;8.55;7.65;;;;;;;23.05;63.21;100321.63;5092347;28;20115;-77
2023/04/22 09:51:57;;;;;;;9.30;7.22;;;;;;;21.98;68.05;100336.75;5093043;28;20025;-77
2023/04/22 09:54:23;;;;;;;9.55;7.10;;;;;;;21.43;68.59;100344.81;5088368;28;20040;-76
2023/04/22 09:56:52;;;;;;;9.93;7.95;;;;;;;21.70;70.49;100338.63;5092960;28;20050;-76
2023/04/22 09:59:27;;;;;;;9.95;7.60;;;;;;;21.70;70.31;100325.84;5090793;28;20046;-77
2023/04/22 10:01:55;;;;;;;8.30;7.25;;;;;;;21.62;72.94;100334.66;5091950;28;20564;-77
2023/04/22 10:04:22;;;;;;;9.10;7.18;;;;;;;21.67;72.50;100312.00;5074654;28;20024;-77
2023/04/22 10:06:48;;;;;;;9.93;7.93;;;;;;;22.00;72.98;100312.75;5088126;28;20044;-77
2023/04/22 10:09:16;;;;;;;9.30;7.97;;;;;;;21.22;71.03;100328.00;5074636;28;20032;-77
2023/04/22 10:11:42;;;;;;;9.63;7.90;;;;;;;20.94;73.97;100327.09;5088312;28;20078;-76
2023/04/22 10:14:09;;;;;;;8.38;7.50;;;;;;;20.93;69.80;100325.47;5074339;28;20052;-76
2023/04/22 10:16:37;;;;;;;8.23;6.72;;;;;;;21.22;69.99;100325.28;5092694;28;20411;-76
2023/04/22 10:19:05;;;;;;;7.70;6.68;;;;;;;21.80;77.83;100322.91;5070104;28;20452;-76
2023/04/22 10:24:54;;;;;;;9.55;7.40;;;;;;;21.11;70.90;100343.69;5091463;28;20034;-76
2023/04/22 10:30:41;;;;;;;9.23;7.78;;;;;;;19.07;79.00;100337.03;5092868;28;20043;-76
2023/04/22 10:33:30;;;;;;;10.63;8.30;;;;;;;19.17;81.83;100326.13;5074864;28;20024;-76
2023/04/22 10:42:51;;;;;;;12.38;8.68;;;;;;;20.21;71.18;100317.47;5093482;28;20046;-77
2023/04/22 10:48:50;;;;;;;9.85;8.55;;;;;;;19.98;78.61;100307.47;5092380;28;20541;-76
2023/04/22 10:51:44;;;;;;;8.98;8.07;;;;;;;19.67;76.91;100307.81;5092159;28;20071;-76
2023/04/22 10:54:36;;;;;;;10.55;6.78;;;;;;;19.09;81.11;100318.63;5069583;28;20048;-77
2023/04/22 10:57:09;;;;;;;8.98;6.95;;;;;;;18.42;82.74;100319.28;5036051;28;20043;-76
2023/04/22 11:03:04;;;;;;;9.45;5.60;;;;;;;17.51;85.72;100320.34;5092869;28;20510;-76
2023/04/22 11:05:31;;;;;;;7.00;6.20;;;;;;;17.33;88.94;100327.94;5087843;28;20091;-77
2023/04/22 11:08:15;;;;;;;8.52;5.97;;;;;;;17.27;88.74;100325.50;5074115;28;20039;-77
2023/04/22 11:10:46;;;;;;;10.15;6.22;;;;;;;17.16;90.75;100322.00;5069354;28;20076;-77
2023/04/22 11:16:33;;;;;;;8.85;6.63;;;;;;;17.03;94.25;100328.75;5091957;28;20119;-77
2023/04/22 11:18:58;;;;;;;10.68;6.82;;;;;;;17.03;96.27;100328.75;5089585;28;20032;-77
2023/04/22 11:21:25;;;;;;;8.68;7.20;;;;;;;16.68;100.00;100317.91;5093832;28;20365;-79
2023/04/22 11:23:51;;;;;;;8.85;7.65;;;;;;;16.21;100.00;100315.31;5071109;28;20032;-77
2023/04/22 11:29:38;;;;;;;11.50;8.02;;;;;;;16.03;100.00;100321.97;5092201;28;20046;-77
2023/04/22 11:32:03;;;;;;;11.13;8.77;;;;;;;16.10;100.00;100315.25;5073538;28;20368;-75
2023/04/22 11:34:28;;;;;;;9.88;7.97;;;;;;;16.23;100.00;100323.97;5070918;28;20318;-77
2023/04/22 11:36:56;;;;;;;13.20;8.43;;;;;;;16.20;100.00;100332.59;5089501;28;20040;-77
2023/04/22 11:39:22;;;;;;;10.23;8.50;;;;;;;16.16;100.00;100326.88;5073444;28;20036;-78
2023/04/22 11:41:48;;;;;;;10.10;8.18;;;;;;;16.20;100.00;100324.50;5069113;28;20503;-77
2023/04/22 11:44:13;;;;;;;11.18;8.20;;;;;;;16.23;100.00;100326.66;5072788;28;20088;-77
2023/04/22 11:46:43;;;;;;;11.55;8.95;;;;;;;16.19;100.00;100315.59;5073467;28;20110;-77
2023/04/22 11:49:15;;;;;;;10.30;8.52;;;;;;;16.35;100.00;100308.34;5057837;28;20121;-77
2023/04/22 11:55:02;;;;;;;12.15;8.07;;;;;;;16.73;100.00;100334.09;5091224;28;20507;-77
2023/04/22 11:57:35;;;;;;;14.35;8.88;;;;;;;16.81;100.00;100332.78;5095496;28;20024;-77
2023/04/22 12:03:23;;;;;;;12.40;8.80;;;;;;;17.22;100.00;100333.63;5095047;28;20070;-77
2023/04/22 12:06:00;;;;;;;11.85;8.27;;;;;;;17.21;100.00;100334.69;5090138;28;20393;-78
2023/04/22 12:08:48;;;;;;;13.43;8.45;;;;;;;17.20;100.00;100342.00;5076495;28;20035;-77
2023/04/22 12:11:13;;;;;;;10.75;9.00;;;;;;;17.34;100.00;100328.75;5089937;28;20036;-77
2023/04/22 12:13:40;;;;;;;11.27;9.27;;;;;;;17.54;100.00;100330.63;5094623;28;20023;-77
2023/04/22 12:16:14;;;;;;;12.18;9.77;;;;;;;17.43;100.00;100319.03;5076350;28;20039;-77
2023/04/22 12:18:52;;;;;;;13.15;9.80;;;;;;;17.26;100.00;100329.28;5072339;28;20043;-77
2023/04/22 12:21:20;;;;;;;12.10;10.75;;;;;;;17.12;100.00;100326.34;5076639;28;20039;-77
2023/04/22 12:23:54;;;;;;;12.80;10.57;;;;;;;17.21;100.00;100340.09;5089884;28;20051;-77
2023/04/22 12:26:23;;;;;;;11.90;10.50;;;;;;;17.07;100.00;100336.34;5076139;28;20024;-78
2023/04/22 12:28:49;;;;;;;14.50;10.52;;;;;;;17.01;100.00;100333.59;5092697;28;20036;-77
2023/04/22 12:31:15;;;;;;;11.65;10.13;;;;;;;16.79;100.00;100341.16;5074045;28;20115;-77
2023/04/22 12:33:41;;;;;;;12.10;10.45;;;;;;;16.51;100.00;100344.28;5094375;28;20026;-77
2023/04/22 12:36:07;;;;;;;12.48;10.32;;;;;;;16.30;100.00;100336.13;5071885;28;20040;-77
2023/04/22 12:38:33;;;;;;;14.07;10.38;;;;;;;16.25;100.00;100343.38;5076112;28;20039;-77
2023/04/22 12:40:58;;;;;;;12.40;9.43;;;;;;;16.06;100.00;100333.03;5072888;28;20103;-77
2023/04/22 12:43:24;;;;;;;11.60;9.77;;;;;;;16.08;100.00;100352.47;5074827;28;20043;-77
2023/04/22 12:45:50;;;;;;;13.82;9.77;;;;;;;15.96;100.00;100346.50;5094218;28;20032;-77
2023/04/22 12:48:15;;;;;;;10.18;8.98;;;;;;;15.54;100.00;100338.38;5071593;28;20042;-77